sensor_id;sensor_type;location;lat;lon;timestamp;P1;durP1;ratioP1;P2;durP2;ratioP2
11504;SDS011;5809;53.262;10.408;2023-06-24T03:20:30;26.40;;;18.08;;
11504;SDS011;5809;53.262;10.408;2023-06-24T03:23:03;25.27;;;19.38;;
11504;SDS011;5809;53.262;10.408;2023-06-24T03:25:31;25.45;;;20.23;;
11504;SDS011;5809;53.262;10.408;2023-06-24T03:27:58;23.60;;;19.42;;
11504;SDS011;5809;53.262;10.408;2023-06-24T03:30:25;25.77;;;19.05;;
11504;SDS011;5809;53.262;10.408;2023-06-24T03:32:52;27.73;;;19.40;;
11504;SDS011;5809;53.262;10.408;2023-06-24T03:35:19;23.30;;;18.58;;
11504;SDS011;5809;53.262;10.408;2023-06-24T03:37:48;25.38;;;20.35;;
11504;SDS011;5809;53.262;10.408;2023-06-24T03:40:15;24.00;;;19.88;;
11504;SDS011;5809;53.262;10.408;2023-06-24T03:42:42;26.77;;;19.85;;
11504;SDS011;5809;53.262;10.408;2023-06-24T03:45:09;25.50;;;19.63;;
11504;SDS011;5809;53.262;10.408;2023-06-24T03:47:37;24.70;;;19.65;;
11504;SDS011;5809;53.262;10.408;2023-06-24T03:50:04;25.13;;;18.95;;
11504;SDS011;5809;53.262;10.408;2023-06-24T03:52:31;27.17;;;19.42;;
11504;SDS011;5809;53.262;10.408;2023-06-24T03:55:00;25.90;;;19.95;;
11504;SDS011;5809;53.262;10.408;2023-06-24T03:57:29;26.73;;;20.50;;
11504;SDS011;5809;53.262;10.408;2023-06-24T03:59:56;24.15;;;19.88;;
11504;SDS011;5809;53.262;10.408;2023-06-24T04:02:24;26.35;;;20.10;;
11504;SDS011;5809;53.262;10.408;2023-06-24T04:04:52;27.15;;;20.75;;
11504;SDS011;5809;53.262;10.408;2023-06-24T04:07:21;30.55;;;20.77;;
11504;SDS011;5809;53.262;10.408;2023-06-24T04:09:53;26.52;;;21.60;;
11504;SDS011;5809;53.262;10.408;2023-06-24T04:12:22;24.52;;;20.77;;
11504;SDS011;5809;53.262;10.408;2023-06-24T04:14:49;26.67;;;20.38;;
11504;SDS011;5809;53.262;10.408;2023-06-24T04:17:16;26.65;;;21.13;;
11504;SDS011;5809;53.262;10.408;2023-06-24T04:19:43;29.48;;;21.73;;
11504;SDS011;5809;53.262;10.408;2023-06-24T04:22:10;27.08;;;20.80;;
11504;SDS011;5809;53.262;10.408;2023-06-24T04:24:37;24.48;;;20.25;;
11504;SDS011;5809;53.262;10.408;2023-06-24T04:27:05;26.38;;;20.65;;
11504;SDS011;5809;53.262;10.408;2023-06-24T04:29:35;26.48;;;20.00;;
11504;SDS011;5809;53.262;10.408;2023-06-24T04:32:02;24.73;;;19.73;;
11504;SDS011;5809;53.262;10.408;2023-06-24T04:34:29;24.75;;;20.70;;
11504;SDS011;5809;53.262;10.408;2023-06-24T04:36:57;24.33;;;19.90;;
11504;SDS011;5809;53.262;10.408;2023-06-24T04:39:24;23.15;;;19.02;;
11504;SDS011;5809;53.262;10.408;2023-06-24T04:41:52;26.45;;;19.95;;
11504;SDS011;5809;53.262;10.408;2023-06-24T04:44:18;24.40;;;19.92;;
11504;SDS011;5809;53.262;10.408;2023-06-24T04:46:47;23.23;;;19.13;;
11504;SDS011;5809;53.262;10.408;2023-06-24T04:49:14;23.70;;;17.75;;
11504;SDS011;5809;53.262;10.408;2023-06-24T04:51:41;23.83;;;18.83;;
11504;SDS011;5809;53.262;10.408;2023-06-24T04:54:08;21.63;;;18.83;;
11504;SDS011;5809;53.262;10.408;2023-06-24T04:56:37;23.95;;;19.45;;
11504;SDS011;5809;53.262;10.408;2023-06-24T04:59:04;21.92;;;17.92;;
11504;SDS011;5809;53.262;10.408;2023-06-24T05:01:31;23.63;;;19.27;;
11504;SDS011;5809;53.262;10.408;2023-06-24T05:03:59;22.48;;;16.95;;
11504;SDS011;5809;53.262;10.408;2023-06-24T05:06:26;19.52;;;17.33;;
11504;SDS011;5809;53.262;10.408;2023-06-24T05:08:53;19.73;;;16.00;;
11504;SDS011;5809;53.262;10.408;2023-06-24T05:11:20;18.92;;;16.33;;
11504;SDS011;5809;53.262;10.408;2023-06-24T05:13:47;17.63;;;15.50;;
11504;SDS011;5809;53.262;10.408;2023-06-24T05:16:14;22.52;;;16.67;;
11504;SDS011;5809;53.262;10.408;2023-06-24T05:18:42;15.32;;;12.68;;
11504;SDS011;5809;53.262;10.408;2023-06-24T05:21:11;15.27;;;13.75;;
11504;SDS011;5809;53.262;10.408;2023-06-24T05:23:38;17.70;;;14.15;;
11504;SDS011;5809;53.262;10.408;2023-06-24T05:26:05;15.00;;;13.13;;
11504;SDS011;5809;53.262;10.408;2023-06-24T05:28:31;13.00;;;11.70;;
11504;SDS011;5809;53.262;10.408;2023-06-24T05:30:58;13.13;;;11.82;;
11504;SDS011;5809;53.262;10.408;2023-06-24T05:33:25;11.57;;;9.98;;
11504;SDS011;5809;53.262;10.408;2023-06-24T05:35:52;19.50;;;10.10;;
11504;SDS011;5809;53.262;10.408;2023-06-24T05:38:20;12.82;;;11.15;;
11504;SDS011;5809;53.262;10.408;2023-06-24T05:40:47;12.15;;;9.52;;
11504;SDS011;5809;53.262;10.408;2023-06-24T05:43:14;9.75;;;7.70;;
11504;SDS011;5809;53.262;10.408;2023-06-24T05:45:41;12.23;;;8.82;;
11504;SDS011;5809;53.262;10.408;2023-06-24T05:48:08;12.65;;;7.75;;
11504;SDS011;5809;53.262;10.408;2023-06-24T05:50:35;8.63;;;7.72;;
11504;SDS011;5809;53.262;10.408;2023-06-24T05:53:02;7.90;;;6.05;;
11504;SDS011;5809;53.262;10.408;2023-06-24T05:55:30;7.40;;;6.50;;
11504;SDS011;5809;53.262;10.408;2023-06-24T05:57:57;10.50;;;5.90;;
11504;SDS011;5809;53.262;10.408;2023-06-24T06:00:24;6.97;;;5.80;;
11504;SDS011;5809;53.262;10.408;2023-06-24T06:02:51;6.18;;;5.20;;
11504;SDS011;5809;53.262;10.408;2023-06-24T06:05:17;8.27;;;6.07;;
11504;SDS011;5809;53.262;10.408;2023-06-24T06:07:44;6.90;;;6.20;;
11504;SDS011;5809;53.262;10.408;2023-06-24T06:10:11;9.43;;;5.90;;
11504;SDS011;5809;53.262;10.408;2023-06-24T06:12:42;6.22;;;5.43;;
11504;SDS011;5809;53.262;10.408;2023-06-24T06:15:09;6.10;;;5.30;;
11504;SDS011;5809;53.262;10.408;2023-06-24T06:17:36;9.82;;;4.60;;
11504;SDS011;5809;53.262;10.408;2023-06-24T06:20:04;5.60;;;4.47;;
11504;SDS011;5809;53.262;10.408;2023-06-24T06:22:31;7.53;;;3.88;;
11504;SDS011;5809;53.262;10.408;2023-06-24T06:25:02;5.25;;;3.47;;
11504;SDS011;5809;53.262;10.408;2023-06-24T06:27:30;4.88;;;3.70;;
11504;SDS011;5809;53.262;10.408;2023-06-24T06:29:58;6.15;;;3.70;;
11504;SDS011;5809;53.262;10.408;2023-06-24T06:32:25;7.95;;;4.22;;
11504;SDS011;5809;53.262;10.408;2023-06-24T06:34:52;5.80;;;4.32;;
11504;SDS011;5809;53.262;10.408;2023-06-24T06:37:19;6.07;;;3.75;;
11504;SDS011;5809;53.262;10.408;2023-06-24T06:39:45;5.07;;;3.58;;
11504;SDS011;5809;53.262;10.408;2023-06-24T06:42:12;5.13;;;3.55;;
11504;SDS011;5809;53.262;10.408;2023-06-24T06:44:40;8.60;;;4.20;;
11504;SDS011;5809;53.262;10.408;2023-06-24T06:47:08;6.78;;;4.30;;
11504;SDS011;5809;53.262;10.408;2023-06-24T06:49:36;7.07;;;4.45;;
11504;SDS011;5809;53.262;10.408;2023-06-24T06:52:03;5.22;;;4.20;;
11504;SDS011;5809;53.262;10.408;2023-06-24T06:54:31;7.80;;;4.10;;
11504;SDS011;5809;53.262;10.408;2023-06-24T06:56:59;5.88;;;4.35;;
11504;SDS011;5809;53.262;10.408;2023-06-24T06:59:27;7.75;;;4.72;;
11504;SDS011;5809;53.262;10.408;2023-06-24T07:01:54;6.95;;;4.25;;
11504;SDS011;5809;53.262;10.408;2023-06-24T07:04:22;6.22;;;4.40;;
11504;SDS011;5809;53.262;10.408;2023-06-24T07:06:49;4.80;;;3.72;;
11504;SDS011;5809;53.262;10.408;2023-06-24T07:09:16;6.50;;;3.95;;
11504;SDS011;5809;53.262;10.408;2023-06-24T07:11:43;5.63;;;3.92;;
11504;SDS011;5809;53.262;10.408;2023-06-24T07:14:10;5.55;;;3.60;;
11504;SDS011;5809;53.262;10.408;2023-06-24T07:16:37;5.13;;;3.63;;
11504;SDS011;5809;53.262;10.408;2023-06-24T07:19:04;4.13;;;3.40;;
11504;SDS011;5809;53.262;10.408;2023-06-24T07:21:32;5.00;;;3.35;;
11504;SDS011;5809;53.262;10.408;2023-06-24T07:23:59;6.57;;;3.55;;
11504;SDS011;5809;53.262;10.408;2023-06-24T07:26:26;3.60;;;3.28;;
11504;SDS011;5809;53.262;10.408;2023-06-24T07:28:56;4.43;;;3.58;;
11504;SDS011;5809;53.262;10.408;2023-06-24T07:31:23;4.60;;;3.63;;
11504;SDS011;5809;53.262;10.408;2023-06-24T07:33:50;5.03;;;3.88;;
11504;SDS011;5809;53.262;10.408;2023-06-24T07:36:17;4.38;;;3.85;;
11504;SDS011;5809;53.262;10.408;2023-06-24T07:38:46;5.82;;;3.83;;
11504;SDS011;5809;53.262;10.408;2023-06-24T07:41:12;4.63;;;4.15;;
11504;SDS011;5809;53.262;10.408;2023-06-24T07:43:39;3.60;;;3.15;;
11504;SDS011;5809;53.262;10.408;2023-06-24T07:46:06;7.97;;;4.60;;
11504;SDS011;5809;53.262;10.408;2023-06-24T07:48:33;6.00;;;4.30;;
11504;SDS011;5809;53.262;10.408;2023-06-24T07:51:00;4.80;;;3.85;;
11504;SDS011;5809;53.262;10.408;2023-06-24T07:53:27;4.05;;;3.58;;
11504;SDS011;5809;53.262;10.408;2023-06-24T07:55:55;4.60;;;3.83;;
11504;SDS011;5809;53.262;10.408;2023-06-24T07:58:22;5.93;;;3.78;;
11504;SDS011;5809;53.262;10.408;2023-06-24T08:00:49;4.50;;;4.07;;
11504;SDS011;5809;53.262;10.408;2023-06-24T08:03:16;4.88;;;3.38;;
11504;SDS011;5809;53.262;10.408;2023-06-24T08:05:43;5.30;;;3.60;;
11504;SDS011;5809;53.262;10.408;2023-06-24T08:08:09;4.60;;;3.38;;
11504;SDS011;5809;53.262;10.408;2023-06-24T08:10:36;4.38;;;3.42;;
11504;SDS011;5809;53.262;10.408;2023-06-24T08:13:04;4.65;;;4.22;;
11504;SDS011;5809;53.262;10.408;2023-06-24T08:15:31;5.40;;;3.97;;
11504;SDS011;5809;53.262;10.408;2023-06-24T08:17:58;4.57;;;3.75;;
11504;SDS011;5809;53.262;10.408;2023-06-24T08:20:25;4.70;;;4.20;;
11504;SDS011;5809;53.262;10.408;2023-06-24T08:22:52;4.95;;;4.20;;
11504;SDS011;5809;53.262;10.408;2023-06-24T08:25:19;5.63;;;3.90;;
11504;SDS011;5809;53.262;10.408;2023-06-24T08:27:49;4.55;;;3.92;;
11504;SDS011;5809;53.262;10.408;2023-06-24T08:30:17;4.03;;;3.50;;
11504;SDS011;5809;53.262;10.408;2023-06-24T08:32:44;4.32;;;3.65;;
11504;SDS011;5809;53.262;10.408;2023-06-24T08:35:11;5.15;;;3.72;;
11504;SDS011;5809;53.262;10.408;2023-06-24T08:37:38;4.13;;;3.70;;
11504;SDS011;5809;53.262;10.408;2023-06-24T08:40:06;4.28;;;3.97;;
11504;SDS011;5809;53.262;10.408;2023-06-24T08:42:33;4.20;;;3.83;;
11504;SDS011;5809;53.262;10.408;2023-06-24T08:45:00;4.47;;;4.07;;
11504;SDS011;5809;53.262;10.408;2023-06-24T08:47:28;5.85;;;4.00;;
11504;SDS011;5809;53.262;10.408;2023-06-24T08:49:58;5.13;;;4.05;;
11504;SDS011;5809;53.262;10.408;2023-06-24T08:52:29;5.03;;;3.75;;
11504;SDS011;5809;53.262;10.408;2023-06-24T08:55:01;4.25;;;3.60;;
11504;SDS011;5809;53.262;10.408;2023-06-24T08:57:28;3.83;;;3.42;;
11504;SDS011;5809;53.262;10.408;2023-06-24T08:59:56;4.05;;;3.70;;
11504;SDS011;5809;53.262;10.408;2023-06-24T09:02:23;5.03;;;3.80;;
11504;SDS011;5809;53.262;10.408;2023-06-24T09:04:51;3.95;;;3.55;;
11504;SDS011;5809;53.262;10.408;2023-06-24T09:07:28;3.90;;;3.60;;
11504;SDS011;5809;53.262;10.408;2023-06-24T09:09:55;5.50;;;3.55;;
11504;SDS011;5809;53.262;10.408;2023-06-24T09:12:23;3.72;;;3.30;;
11504;SDS011;5809;53.262;10.408;2023-06-24T09:14:51;3.88;;;3.53;;
11504;SDS011;5809;53.262;10.408;2023-06-24T09:17:18;5.60;;;3.35;;
11504;SDS011;5809;53.262;10.408;2023-06-24T09:35:34;3.85;;;3.22;;
11504;SDS011;5809;53.262;10.408;2023-06-24T09:38:02;3.65;;;3.35;;
11504;SDS011;5809;53.262;10.408;2023-06-24T09:40:29;4.10;;;3.50;;
11504;SDS011;5809;53.262;10.408;2023-06-24T09:43:01;3.72;;;3.42;;
11504;SDS011;5809;53.262;10.408;2023-06-24T09:45:29;4.72;;;3.40;;
11504;SDS011;5809;53.262;10.408;2023-06-24T09:47:56;4.63;;;3.60;;
11504;SDS011;5809;53.262;10.408;2023-06-24T09:50:24;5.82;;;4.00;;
11504;SDS011;5809;53.262;10.408;2023-06-24T09:52:52;6.18;;;4.10;;
11504;SDS011;5809;53.262;10.408;2023-06-24T09:55:22;4.18;;;3.50;;
11504;SDS011;5809;53.262;10.408;2023-06-24T09:57:50;4.45;;;4.05;;
11504;SDS011;5809;53.262;10.408;2023-06-24T10:00:19;4.45;;;4.05;;
11504;SDS011;5809;53.262;10.408;2023-06-24T10:02:47;5.35;;;4.18;;
11504;SDS011;5809;53.262;10.408;2023-06-24T10:05:14;4.43;;;3.78;;
11504;SDS011;5809;53.262;10.408;2023-06-24T10:07:41;6.00;;;4.43;;
11504;SDS011;5809;53.262;10.408;2023-06-24T10:10:10;5.35;;;4.47;;
11504;SDS011;5809;53.262;10.408;2023-06-24T10:12:37;5.10;;;4.35;;
11504;SDS011;5809;53.262;10.408;2023-06-24T10:15:05;4.40;;;4.10;;
11504;SDS011;5809;53.262;10.408;2023-06-24T10:17:32;5.07;;;4.63;;
11504;SDS011;5809;53.262;10.408;2023-06-24T10:20:03;5.07;;;4.53;;
11504;SDS011;5809;53.262;10.408;2023-06-24T10:22:31;6.88;;;4.68;;
11504;SDS011;5809;53.262;10.408;2023-06-24T10:24:59;5.70;;;5.20;;
11504;SDS011;5809;53.262;10.408;2023-06-24T10:27:28;7.13;;;5.13;;
11504;SDS011;5809;53.262;10.408;2023-06-24T10:30:01;7.22;;;5.40;;
11504;SDS011;5809;53.262;10.408;2023-06-24T10:32:28;5.50;;;5.03;;
11504;SDS011;5809;53.262;10.408;2023-06-24T10:35:07;5.18;;;4.38;;
11504;SDS011;5809;53.262;10.408;2023-06-24T10:37:53;5.47;;;4.78;;
11504;SDS011;5809;53.262;10.408;2023-06-24T10:45:56;5.88;;;5.07;;
11504;SDS011;5809;53.262;10.408;2023-06-24T10:48:24;5.07;;;4.57;;
11504;SDS011;5809;53.262;10.408;2023-06-24T10:50:51;6.35;;;4.38;;
11504;SDS011;5809;53.262;10.408;2023-06-24T10:53:18;5.35;;;4.65;;
11504;SDS011;5809;53.262;10.408;2023-06-24T10:55:45;5.95;;;4.80;;
11504;SDS011;5809;53.262;10.408;2023-06-24T10:58:13;4.97;;;4.40;;
11504;SDS011;5809;53.262;10.408;2023-06-24T11:00:42;5.97;;;4.60;;
11504;SDS011;5809;53.262;10.408;2023-06-24T11:03:12;5.28;;;4.53;;
11504;SDS011;5809;53.262;10.408;2023-06-24T11:05:40;5.10;;;4.53;;
11504;SDS011;5809;53.262;10.408;2023-06-24T11:08:07;6.20;;;4.45;;
11504;SDS011;5809;53.262;10.408;2023-06-24T11:10:41;4.30;;;4.00;;
11504;SDS011;5809;53.262;10.408;2023-06-24T11:13:09;6.10;;;4.32;;
11504;SDS011;5809;53.262;10.408;2023-06-24T11:15:36;5.82;;;4.60;;
11504;SDS011;5809;53.262;10.408;2023-06-24T11:18:06;4.47;;;4.07;;
11504;SDS011;5809;53.262;10.408;2023-06-24T11:20:35;5.03;;;4.55;;
11504;SDS011;5809;53.262;10.408;2023-06-24T11:23:02;5.65;;;4.13;;
11504;SDS011;5809;53.262;10.408;2023-06-24T11:25:32;4.63;;;3.97;;
11504;SDS011;5809;53.262;10.408;2023-06-24T11:28:05;4.70;;;4.30;;
11504;SDS011;5809;53.262;10.408;2023-06-24T11:30:33;4.38;;;4.00;;
11504;SDS011;5809;53.262;10.408;2023-06-24T11:33:00;6.28;;;4.13;;
11504;SDS011;5809;53.262;10.408;2023-06-24T11:35:29;4.55;;;4.13;;
11504;SDS011;5809;53.262;10.408;2023-06-24T11:38:00;4.60;;;3.75;;
11504;SDS011;5809;53.262;10.408;2023-06-24T11:40:27;5.63;;;3.90;;
11504;SDS011;5809;53.262;10.408;2023-06-24T11:42:56;4.20;;;3.75;;
11504;SDS011;5809;53.262;10.408;2023-06-24T11:45:23;4.05;;;3.65;;
11504;SDS011;5809;53.262;10.408;2023-06-24T11:47:51;4.30;;;3.90;;
11504;SDS011;5809;53.262;10.408;2023-06-24T11:50:18;4.45;;;3.95;;
11504;SDS011;5809;53.262;10.408;2023-06-24T11:52:46;4.80;;;4.00;;
11504;SDS011;5809;53.262;10.408;2023-06-24T11:55:18;6.57;;;4.05;;
11504;SDS011;5809;53.262;10.408;2023-06-24T11:57:52;3.88;;;3.58;;
11504;SDS011;5809;53.262;10.408;2023-06-24T12:00:20;4.03;;;3.63;;
11504;SDS011;5809;53.262;10.408;2023-06-24T12:02:55;4.68;;;3.80;;
11504;SDS011;5809;53.262;10.408;2023-06-24T12:05:23;5.03;;;4.03;;
11504;SDS011;5809;53.262;10.408;2023-06-24T12:07:58;4.45;;;4.05;;
11504;SDS011;5809;53.262;10.408;2023-06-24T12:10:25;4.32;;;3.92;;
11504;SDS011;5809;53.262;10.408;2023-06-24T12:12:53;4.72;;;3.92;;
11504;SDS011;5809;53.262;10.408;2023-06-24T12:15:21;4.25;;;3.85;;
11504;SDS011;5809;53.262;10.408;2023-06-24T12:17:48;5.35;;;3.63;;
11504;SDS011;5809;53.262;10.408;2023-06-24T12:20:15;4.68;;;3.80;;
11504;SDS011;5809;53.262;10.408;2023-06-24T12:22:43;4.00;;;3.63;;
11504;SDS011;5809;53.262;10.408;2023-06-24T12:25:11;3.85;;;3.45;;
11504;SDS011;5809;53.262;10.408;2023-06-24T12:27:38;3.95;;;3.50;;
11504;SDS011;5809;53.262;10.408;2023-06-24T12:30:06;4.53;;;3.63;;
11504;SDS011;5809;53.262;10.408;2023-06-24T12:32:34;6.47;;;3.53;;
11504;SDS011;5809;53.262;10.408;2023-06-24T12:35:01;4.05;;;3.72;;
11504;SDS011;5809;53.262;10.408;2023-06-24T12:37:29;3.92;;;3.53;;
11504;SDS011;5809;53.262;10.408;2023-06-24T12:39:57;4.00;;;3.70;;
11504;SDS011;5809;53.262;10.408;2023-06-24T12:42:25;3.75;;;3.30;;
11504;SDS011;5809;53.262;10.408;2023-06-24T12:44:53;4.28;;;3.85;;
11504;SDS011;5809;53.262;10.408;2023-06-24T12:47:20;5.20;;;3.88;;
11504;SDS011;5809;53.262;10.408;2023-06-24T12:49:47;6.70;;;3.70;;
11504;SDS011;5809;53.262;10.408;2023-06-24T12:52:14;4.20;;;3.47;;
11504;SDS011;5809;53.262;10.408;2023-06-24T12:54:41;5.40;;;3.83;;
11504;SDS011;5809;53.262;10.408;2023-06-24T12:57:08;6.28;;;3.50;;
11504;SDS011;5809;53.262;10.408;2023-06-24T12:59:37;3.80;;;3.50;;
11504;SDS011;5809;53.262;10.408;2023-06-24T13:02:04;4.30;;;3.58;;
11504;SDS011;5809;53.262;10.408;2023-06-24T13:04:31;6.00;;;3.20;;
11504;SDS011;5809;53.262;10.408;2023-06-24T13:06:58;4.90;;;3.63;;
11504;SDS011;5809;53.262;10.408;2023-06-24T13:09:26;4.97;;;3.50;;
11504;SDS011;5809;53.262;10.408;2023-06-24T13:11:53;4.03;;;3.42;;
11504;SDS011;5809;53.262;10.408;2023-06-24T13:14:20;3.97;;;3.58;;
11504;SDS011;5809;53.262;10.408;2023-06-24T13:16:48;5.65;;;3.58;;
11504;SDS011;5809;53.262;10.408;2023-06-24T13:19:15;5.95;;;3.40;;
11504;SDS011;5809;53.262;10.408;2023-06-24T13:21:42;4.32;;;3.50;;
11504;SDS011;5809;53.262;10.408;2023-06-24T13:24:09;3.80;;;3.33;;
11504;SDS011;5809;53.262;10.408;2023-06-24T13:26:37;3.67;;;3.38;;
11504;SDS011;5809;53.262;10.408;2023-06-24T13:29:04;3.65;;;3.35;;
11504;SDS011;5809;53.262;10.408;2023-06-24T13:31:32;3.40;;;3.10;;
11504;SDS011;5809;53.262;10.408;2023-06-24T13:34:01;4.15;;;3.10;;
11504;SDS011;5809;53.262;10.408;2023-06-24T13:36:30;3.35;;;3.05;;
11504;SDS011;5809;53.262;10.408;2023-06-24T13:39:00;3.80;;;3.35;;
11504;SDS011;5809;53.262;10.408;2023-06-24T13:41:28;4.20;;;3.42;;
11504;SDS011;5809;53.262;10.408;2023-06-24T13:43:57;4.20;;;3.30;;
11504;SDS011;5809;53.262;10.408;2023-06-24T13:46:24;3.80;;;3.47;;
11504;SDS011;5809;53.262;10.408;2023-06-24T13:48:51;4.20;;;3.63;;
11504;SDS011;5809;53.262;10.408;2023-06-24T13:51:19;6.03;;;3.45;;
11504;SDS011;5809;53.262;10.408;2023-06-24T13:53:47;6.57;;;3.47;;
11504;SDS011;5809;53.262;10.408;2023-06-24T13:56:14;4.25;;;3.28;;
11504;SDS011;5809;53.262;10.408;2023-06-24T13:58:41;5.68;;;3.60;;
11504;SDS011;5809;53.262;10.408;2023-06-24T14:01:08;5.25;;;3.40;;
11504;SDS011;5809;53.262;10.408;2023-06-24T14:03:35;8.68;;;3.85;;
11504;SDS011;5809;53.262;10.408;2023-06-24T14:06:02;16.95;;;4.60;;
11504;SDS011;5809;53.262;10.408;2023-06-24T14:08:31;4.20;;;3.40;;
11504;SDS011;5809;53.262;10.408;2023-06-24T14:10:58;4.25;;;3.67;;
11504;SDS011;5809;53.262;10.408;2023-06-24T14:13:26;4.45;;;3.50;;
11504;SDS011;5809;53.262;10.408;2023-06-24T14:15:54;4.28;;;3.90;;
11504;SDS011;5809;53.262;10.408;2023-06-24T14:18:21;4.15;;;3.85;;
11504;SDS011;5809;53.262;10.408;2023-06-24T14:20:48;3.80;;;3.45;;
11504;SDS011;5809;53.262;10.408;2023-06-24T14:23:15;3.90;;;3.60;;
11504;SDS011;5809;53.262;10.408;2023-06-24T14:25:44;3.97;;;3.63;;
11504;SDS011;5809;53.262;10.408;2023-06-24T14:28:11;3.90;;;3.50;;
11504;SDS011;5809;53.262;10.408;2023-06-24T14:30:38;3.40;;;3.05;;
11504;SDS011;5809;53.262;10.408;2023-06-24T14:33:06;5.72;;;3.60;;
11504;SDS011;5809;53.262;10.408;2023-06-24T14:35:33;5.22;;;3.67;;
11504;SDS011;5809;53.262;10.408;2023-06-24T14:38:00;3.55;;;3.25;;
11504;SDS011;5809;53.262;10.408;2023-06-24T14:40:28;4.95;;;3.50;;
11504;SDS011;5809;53.262;10.408;2023-06-24T14:42:56;5.50;;;3.63;;
11504;SDS011;5809;53.262;10.408;2023-06-24T14:45:23;3.72;;;3.42;;
11504;SDS011;5809;53.262;10.408;2023-06-24T14:47:50;4.13;;;3.42;;
11504;SDS011;5809;53.262;10.408;2023-06-24T14:50:17;4.53;;;3.80;;
11504;SDS011;5809;53.262;10.408;2023-06-24T14:52:44;4.53;;;4.10;;
11504;SDS011;5809;53.262;10.408;2023-06-24T14:55:15;4.13;;;3.72;;
11504;SDS011;5809;53.262;10.408;2023-06-24T14:57:45;3.80;;;3.50;;
11504;SDS011;5809;53.262;10.408;2023-06-24T15:00:14;5.28;;;4.78;;
11504;SDS011;5809;53.262;10.408;2023-06-24T15:02:41;8.02;;;3.92;;
11504;SDS011;5809;53.262;10.408;2023-06-24T15:05:08;4.57;;;3.67;;
11504;SDS011;5809;53.262;10.408;2023-06-24T15:07:35;4.00;;;3.60;;
11504;SDS011;5809;53.262;10.408;2023-06-24T15:10:03;5.55;;;3.85;;
11504;SDS011;5809;53.262;10.408;2023-06-24T15:12:31;4.47;;;4.00;;
11504;SDS011;5809;53.262;10.408;2023-06-24T15:14:59;5.07;;;4.30;;
11504;SDS011;5809;53.262;10.408;2023-06-24T15:17:27;5.22;;;3.67;;
11504;SDS011;5809;53.262;10.408;2023-06-24T15:19:55;5.82;;;4.70;;
11504;SDS011;5809;53.262;10.408;2023-06-24T15:22:22;4.68;;;4.28;;
11504;SDS011;5809;53.262;10.408;2023-06-24T15:24:49;4.30;;;3.90;;
11504;SDS011;5809;53.262;10.408;2023-06-24T15:27:16;4.10;;;3.72;;
11504;SDS011;5809;53.262;10.408;2023-06-24T15:29:43;4.20;;;3.85;;
11504;SDS011;5809;53.262;10.408;2023-06-24T15:32:10;8.07;;;3.70;;
11504;SDS011;5809;53.262;10.408;2023-06-24T15:34:39;4.95;;;4.00;;
11504;SDS011;5809;53.262;10.408;2023-06-24T15:37:06;4.65;;;3.90;;
11504;SDS011;5809;53.262;10.408;2023-06-24T15:39:33;4.57;;;3.47;;
11504;SDS011;5809;53.262;10.408;2023-06-24T15:42:00;6.03;;;4.18;;
11504;SDS011;5809;53.262;10.408;2023-06-24T15:44:26;5.38;;;4.20;;
11504;SDS011;5809;53.262;10.408;2023-06-24T15:46:54;6.22;;;3.95;;
11504;SDS011;5809;53.262;10.408;2023-06-24T15:49:21;4.28;;;3.88;;
11504;SDS011;5809;53.262;10.408;2023-06-24T15:51:50;4.65;;;3.83;;
11504;SDS011;5809;53.262;10.408;2023-06-24T15:54:17;4.93;;;3.90;;
11504;SDS011;5809;53.262;10.408;2023-06-24T15:56:43;6.75;;;4.05;;
11504;SDS011;5809;53.262;10.408;2023-06-24T15:59:10;5.55;;;3.90;;
11504;SDS011;5809;53.262;10.408;2023-06-24T16:01:38;4.38;;;3.58;;
11504;SDS011;5809;53.262;10.408;2023-06-24T16:04:06;4.35;;;3.90;;
11504;SDS011;5809;53.262;10.408;2023-06-24T16:06:34;4.43;;;4.00;;
11504;SDS011;5809;53.262;10.408;2023-06-24T16:09:02;6.82;;;4.10;;
11504;SDS011;5809;53.262;10.408;2023-06-24T16:11:29;6.13;;;4.28;;
11504;SDS011;5809;53.262;10.408;2023-06-24T16:13:56;6.30;;;4.78;;
11504;SDS011;5809;53.262;10.408;2023-06-24T16:16:23;5.53;;;4.97;;
11504;SDS011;5809;53.262;10.408;2023-06-24T16:18:50;4.93;;;4.43;;
11504;SDS011;5809;53.262;10.408;2023-06-24T16:21:17;5.10;;;4.10;;
11504;SDS011;5809;53.262;10.408;2023-06-24T16:23:44;4.30;;;3.90;;
11504;SDS011;5809;53.262;10.408;2023-06-24T16:26:12;8.40;;;4.03;;
11504;SDS011;5809;53.262;10.408;2023-06-24T16:28:39;4.82;;;4.22;;
11504;SDS011;5809;53.262;10.408;2023-06-24T16:31:05;5.43;;;3.92;;
11504;SDS011;5809;53.262;10.408;2023-06-24T16:33:32;7.13;;;4.65;;
11504;SDS011;5809;53.262;10.408;2023-06-24T16:35:59;4.88;;;3.70;;
11504;SDS011;5809;53.262;10.408;2023-06-24T16:38:26;4.60;;;4.20;;
11504;SDS011;5809;53.262;10.408;2023-06-24T16:40:53;5.07;;;3.78;;
11504;SDS011;5809;53.262;10.408;2023-06-24T16:43:22;5.45;;;3.80;;
11504;SDS011;5809;53.262;10.408;2023-06-24T16:45:48;5.82;;;4.38;;
11504;SDS011;5809;53.262;10.408;2023-06-24T16:48:15;6.38;;;4.00;;
11504;SDS011;5809;53.262;10.408;2023-06-24T16:50:42;5.90;;;4.30;;
11504;SDS011;5809;53.262;10.408;2023-06-24T16:53:09;7.30;;;4.18;;
11504;SDS011;5809;53.262;10.408;2023-06-24T16:55:37;4.60;;;4.20;;
11504;SDS011;5809;53.262;10.408;2023-06-24T16:58:04;6.03;;;5.25;;
11504;SDS011;5809;53.262;10.408;2023-06-24T17:00:32;4.72;;;4.32;;
11504;SDS011;5809;53.262;10.408;2023-06-24T17:02:59;6.38;;;4.60;;
11504;SDS011;5809;53.262;10.408;2023-06-24T17:05:25;4.38;;;3.92;;
11504;SDS011;5809;53.262;10.408;2023-06-24T17:07:52;4.45;;;4.05;;
11504;SDS011;5809;53.262;10.408;2023-06-24T17:10:19;6.97;;;6.28;;
11504;SDS011;5809;53.262;10.408;2023-06-24T17:12:46;5.30;;;4.80;;
11504;SDS011;5809;53.262;10.408;2023-06-24T17:15:13;4.47;;;4.03;;
11504;SDS011;5809;53.262;10.408;2023-06-24T17:17:41;4.50;;;4.10;;
11504;SDS011;5809;53.262;10.408;2023-06-24T17:20:08;6.18;;;4.43;;
11504;SDS011;5809;53.262;10.408;2023-06-24T17:22:35;5.35;;;4.50;;
11504;SDS011;5809;53.262;10.408;2023-06-24T17:25:02;5.20;;;4.25;;
11504;SDS011;5809;53.262;10.408;2023-06-24T17:27:29;5.55;;;4.00;;
11504;SDS011;5809;53.262;10.408;2023-06-24T17:29:56;4.90;;;4.50;;
11504;SDS011;5809;53.262;10.408;2023-06-24T17:32:23;5.32;;;4.82;;
11504;SDS011;5809;53.262;10.408;2023-06-24T17:34:51;6.53;;;5.63;;
11504;SDS011;5809;53.262;10.408;2023-06-24T17:37:18;6.07;;;5.47;;
11504;SDS011;5809;53.262;10.408;2023-06-24T17:39:45;6.20;;;5.45;;
11504;SDS011;5809;53.262;10.408;2023-06-24T17:42:12;8.07;;;5.40;;
11504;SDS011;5809;53.262;10.408;2023-06-24T17:44:39;6.78;;;5.28;;
11504;SDS011;5809;53.262;10.408;2023-06-24T17:47:06;6.20;;;4.57;;
11504;SDS011;5809;53.262;10.408;2023-06-24T17:49:33;5.30;;;4.68;;
11504;SDS011;5809;53.262;10.408;2023-06-24T17:52:01;5.57;;;4.30;;
11504;SDS011;5809;53.262;10.408;2023-06-24T17:54:28;6.50;;;4.40;;
11504;SDS011;5809;53.262;10.408;2023-06-24T17:56:55;6.00;;;4.40;;
11504;SDS011;5809;53.262;10.408;2023-06-24T17:59:22;7.60;;;4.70;;
11504;SDS011;5809;53.262;10.408;2023-06-24T18:01:49;7.88;;;6.50;;
11504;SDS011;5809;53.262;10.408;2023-06-24T18:04:16;7.78;;;6.97;;
11504;SDS011;5809;53.262;10.408;2023-06-24T18:06:43;7.38;;;6.32;;
11504;SDS011;5809;53.262;10.408;2023-06-24T18:09:11;7.47;;;6.05;;
11504;SDS011;5809;53.262;10.408;2023-06-24T18:11:38;7.45;;;5.82;;
11504;SDS011;5809;53.262;10.408;2023-06-24T18:14:05;12.05;;;8.60;;
11504;SDS011;5809;53.262;10.408;2023-06-24T18:16:32;8.10;;;7.07;;
11504;SDS011;5809;53.262;10.408;2023-06-24T18:18:58;10.88;;;7.43;;
11504;SDS011;5809;53.262;10.408;2023-06-24T18:21:25;7.63;;;6.18;;
11504;SDS011;5809;53.262;10.408;2023-06-24T18:23:52;7.00;;;6.30;;
11504;SDS011;5809;53.262;10.408;2023-06-24T18:26:20;8.52;;;6.88;;